sensor_id;sensor_type;location;lat;lon;timestamp;P1;durP1;ratioP1;P2;durP2;ratioP2
67902;SDS011;54708;43.612;1.568;2023-06-01T00:01:05;15.02;;;8.07;;
67902;SDS011;54708;43.612;1.568;2023-06-01T00:03:30;13.10;;;7.35;;
67902;SDS011;54708;43.612;1.568;2023-06-01T00:05:56;13.98;;;6.78;;
67902;SDS011;54708;43.612;1.568;2023-06-01T00:08:21;13.75;;;7.35;;
67902;SDS011;54708;43.612;1.568;2023-06-01T00:10:50;15.10;;;6.88;;
67902;SDS011;54708;43.612;1.568;2023-06-01T00:13:15;10.13;;;7.20;;
67902;SDS011;54708;43.612;1.568;2023-06-01T00:15:41;11.00;;;6.25;;
67902;SDS011;54708;43.612;1.568;2023-06-01T00:18:06;10.55;;;7.82;;
67902;SDS011;54708;43.612;1.568;2023-06-01T00:20:33;14.32;;;7.35;;
67902;SDS011;54708;43.612;1.568;2023-06-01T00:22:59;10.40;;;7.32;;
67902;SDS011;54708;43.612;1.568;2023-06-01T00:25:25;12.93;;;6.43;;
67902;SDS011;54708;43.612;1.568;2023-06-01T00:27:50;11.32;;;7.68;;
67902;SDS011;54708;43.612;1.568;2023-06-01T00:30:16;10.63;;;6.82;;
67902;SDS011;54708;43.612;1.568;2023-06-01T00:32:41;16.13;;;9.27;;
67902;SDS011;54708;43.612;1.568;2023-06-01T00:35:06;14.20;;;7.20;;
67902;SDS011;54708;43.612;1.568;2023-06-01T00:37:32;14.13;;;6.97;;
67902;SDS011;54708;43.612;1.568;2023-06-01T00:39:57;12.82;;;6.38;;
67902;SDS011;54708;43.612;1.568;2023-06-01T00:42:23;7.07;;;6.32;;
67902;SDS011;54708;43.612;1.568;2023-06-01T00:44:48;10.68;;;6.13;;
67902;SDS011;54708;43.612;1.568;2023-06-01T00:47:14;11.13;;;6.90;;
67902;SDS011;54708;43.612;1.568;2023-06-01T00:49:40;13.40;;;7.00;;
67902;SDS011;54708;43.612;1.568;2023-06-01T00:52:05;10.82;;;6.72;;
67902;SDS011;54708;43.612;1.568;2023-06-01T00:54:31;15.02;;;7.15;;
67902;SDS011;54708;43.612;1.568;2023-06-01T00:56:56;7.32;;;6.03;;
67902;SDS011;54708;43.612;1.568;2023-06-01T00:59:22;11.30;;;6.80;;
67902;SDS011;54708;43.612;1.568;2023-06-01T01:01:47;9.93;;;7.03;;
67902;SDS011;54708;43.612;1.568;2023-06-01T01:04:13;16.17;;;6.80;;
67902;SDS011;54708;43.612;1.568;2023-06-01T01:11:57;9.52;;;5.80;;
67902;SDS011;54708;43.612;1.568;2023-06-01T01:14:28;11.80;;;7.20;;
67902;SDS011;54708;43.612;1.568;2023-06-01T01:30:37;14.07;;;7.30;;
67902;SDS011;54708;43.612;1.568;2023-06-01T01:33:05;10.55;;;6.65;;
67902;SDS011;54708;43.612;1.568;2023-06-01T01:35:31;12.93;;;6.82;;
67902;SDS011;54708;43.612;1.568;2023-06-01T01:37:57;11.25;;;7.28;;
67902;SDS011;54708;43.612;1.568;2023-06-01T01:40:23;21.42;;;7.35;;
67902;SDS011;54708;43.612;1.568;2023-06-01T01:42:48;12.95;;;6.65;;
67902;SDS011;54708;43.612;1.568;2023-06-01T01:45:15;12.15;;;6.55;;
67902;SDS011;54708;43.612;1.568;2023-06-01T01:47:54;16.40;;;6.90;;
67902;SDS011;54708;43.612;1.568;2023-06-01T01:50:36;10.63;;;6.97;;
67902;SDS011;54708;43.612;1.568;2023-06-01T01:53:04;12.85;;;6.40;;
67902;SDS011;54708;43.612;1.568;2023-06-01T01:55:31;14.65;;;6.55;;
67902;SDS011;54708;43.612;1.568;2023-06-01T01:57:58;9.55;;;6.75;;
67902;SDS011;54708;43.612;1.568;2023-06-01T02:00:25;13.65;;;6.30;;
67902;SDS011;54708;43.612;1.568;2023-06-01T02:02:51;15.43;;;7.53;;
67902;SDS011;54708;43.612;1.568;2023-06-01T02:05:16;10.05;;;6.43;;
67902;SDS011;54708;43.612;1.568;2023-06-01T02:07:41;14.50;;;7.13;;
67902;SDS011;54708;43.612;1.568;2023-06-01T02:10:07;16.13;;;9.15;;
67902;SDS011;54708;43.612;1.568;2023-06-01T02:12:32;9.25;;;6.10;;
67902;SDS011;54708;43.612;1.568;2023-06-01T02:14:58;12.20;;;6.57;;
67902;SDS011;54708;43.612;1.568;2023-06-01T02:17:23;10.43;;;6.55;;
67902;SDS011;54708;43.612;1.568;2023-06-01T02:19:51;13.88;;;7.05;;
67902;SDS011;54708;43.612;1.568;2023-06-01T02:22:17;13.85;;;7.03;;
67902;SDS011;54708;43.612;1.568;2023-06-01T02:24:42;20.17;;;7.93;;
67902;SDS011;54708;43.612;1.568;2023-06-01T02:27:07;14.90;;;7.18;;
67902;SDS011;54708;43.612;1.568;2023-06-01T02:29:33;12.48;;;7.10;;
67902;SDS011;54708;43.612;1.568;2023-06-01T02:31:58;18.35;;;8.13;;
67902;SDS011;54708;43.612;1.568;2023-06-01T02:34:24;11.77;;;7.57;;
67902;SDS011;54708;43.612;1.568;2023-06-01T02:36:49;14.55;;;7.60;;
67902;SDS011;54708;43.612;1.568;2023-06-01T02:39:15;13.93;;;6.85;;
67902;SDS011;54708;43.612;1.568;2023-06-01T02:41:40;9.75;;;7.25;;
67902;SDS011;54708;43.612;1.568;2023-06-01T02:44:06;19.15;;;7.35;;
67902;SDS011;54708;43.612;1.568;2023-06-01T02:46:31;16.35;;;7.72;;
67902;SDS011;54708;43.612;1.568;2023-06-01T02:48:57;11.45;;;6.97;;
67902;SDS011;54708;43.612;1.568;2023-06-01T02:51:22;16.13;;;7.82;;
67902;SDS011;54708;43.612;1.568;2023-06-01T02:53:47;10.80;;;6.43;;
67902;SDS011;54708;43.612;1.568;2023-06-01T02:56:13;14.93;;;6.93;;
67902;SDS011;54708;43.612;1.568;2023-06-01T02:58:39;15.02;;;7.40;;
67902;SDS011;54708;43.612;1.568;2023-06-01T03:01:06;14.05;;;8.35;;
67902;SDS011;54708;43.612;1.568;2023-06-01T03:03:36;11.38;;;6.82;;
67902;SDS011;54708;43.612;1.568;2023-06-01T03:06:02;25.58;;;9.32;;
67902;SDS011;54708;43.612;1.568;2023-06-01T03:08:29;15.80;;;6.72;;
67902;SDS011;54708;43.612;1.568;2023-06-01T03:10:55;11.77;;;7.20;;
67902;SDS011;54708;43.612;1.568;2023-06-01T03:13:20;10.73;;;7.05;;
67902;SDS011;54708;43.612;1.568;2023-06-01T03:15:46;12.30;;;7.03;;
67902;SDS011;54708;43.612;1.568;2023-06-01T03:18:11;14.35;;;8.00;;
67902;SDS011;54708;43.612;1.568;2023-06-01T03:20:37;11.02;;;8.00;;
67902;SDS011;54708;43.612;1.568;2023-06-01T03:23:02;8.90;;;6.95;;
67902;SDS011;54708;43.612;1.568;2023-06-01T03:25:28;11.88;;;7.65;;
67902;SDS011;54708;43.612;1.568;2023-06-01T03:27:53;10.70;;;7.45;;
67902;SDS011;54708;43.612;1.568;2023-06-01T03:30:19;12.27;;;8.02;;
67902;SDS011;54708;43.612;1.568;2023-06-01T03:32:44;15.93;;;7.80;;
67902;SDS011;54708;43.612;1.568;2023-06-01T03:35:11;15.13;;;7.55;;
67902;SDS011;54708;43.612;1.568;2023-06-01T03:37:37;15.20;;;8.32;;
67902;SDS011;54708;43.612;1.568;2023-06-01T03:40:04;14.43;;;7.80;;
67902;SDS011;54708;43.612;1.568;2023-06-01T03:42:43;13.02;;;8.43;;
67902;SDS011;54708;43.612;1.568;2023-06-01T03:45:09;15.40;;;7.97;;
67902;SDS011;54708;43.612;1.568;2023-06-01T03:47:35;13.60;;;7.68;;
67902;SDS011;54708;43.612;1.568;2023-06-01T03:50:01;9.68;;;7.60;;
67902;SDS011;54708;43.612;1.568;2023-06-01T03:52:27;13.60;;;8.93;;
67902;SDS011;54708;43.612;1.568;2023-06-01T03:54:54;11.88;;;7.55;;
67902;SDS011;54708;43.612;1.568;2023-06-01T03:57:20;10.45;;;7.85;;
67902;SDS011;54708;43.612;1.568;2023-06-01T03:59:45;14.10;;;7.60;;
67902;SDS011;54708;43.612;1.568;2023-06-01T04:02:11;12.93;;;7.10;;
67902;SDS011;54708;43.612;1.568;2023-06-01T04:04:36;13.80;;;6.75;;
67902;SDS011;54708;43.612;1.568;2023-06-01T04:07:02;14.02;;;7.32;;
67902;SDS011;54708;43.612;1.568;2023-06-01T04:09:29;14.75;;;7.68;;
67902;SDS011;54708;43.612;1.568;2023-06-01T04:11:55;16.50;;;8.45;;
67902;SDS011;54708;43.612;1.568;2023-06-01T04:14:20;13.40;;;7.10;;
67902;SDS011;54708;43.612;1.568;2023-06-01T04:16:46;9.38;;;7.18;;
67902;SDS011;54708;43.612;1.568;2023-06-01T04:19:11;16.55;;;9.52;;
67902;SDS011;54708;43.612;1.568;2023-06-01T04:21:37;15.23;;;7.75;;
67902;SDS011;54708;43.612;1.568;2023-06-01T04:24:02;13.18;;;8.38;;
67902;SDS011;54708;43.612;1.568;2023-06-01T04:26:28;16.33;;;8.88;;
67902;SDS011;54708;43.612;1.568;2023-06-01T04:28:56;14.05;;;7.43;;
67902;SDS011;54708;43.612;1.568;2023-06-01T04:31:22;14.55;;;7.30;;
67902;SDS011;54708;43.612;1.568;2023-06-01T04:33:48;14.27;;;7.65;;
67902;SDS011;54708;43.612;1.568;2023-06-01T04:36:18;15.80;;;8.73;;
67902;SDS011;54708;43.612;1.568;2023-06-01T04:38:46;16.48;;;8.60;;
67902;SDS011;54708;43.612;1.568;2023-06-01T04:41:16;16.58;;;8.45;;
67902;SDS011;54708;43.612;1.568;2023-06-01T04:43:42;12.77;;;8.25;;
67902;SDS011;54708;43.612;1.568;2023-06-01T04:46:07;15.93;;;8.10;;
67902;SDS011;54708;43.612;1.568;2023-06-01T04:48:33;12.05;;;8.15;;
67902;SDS011;54708;43.612;1.568;2023-06-01T04:50:58;13.45;;;8.13;;
67902;SDS011;54708;43.612;1.568;2023-06-01T04:53:24;10.45;;;7.88;;
67902;SDS011;54708;43.612;1.568;2023-06-01T04:55:50;11.70;;;8.65;;
67902;SDS011;54708;43.612;1.568;2023-06-01T04:58:15;13.57;;;8.82;;
67902;SDS011;54708;43.612;1.568;2023-06-01T05:00:41;14.43;;;7.35;;
67902;SDS011;54708;43.612;1.568;2023-06-01T05:03:06;15.13;;;8.82;;
67902;SDS011;54708;43.612;1.568;2023-06-01T05:05:32;18.08;;;8.48;;
67902;SDS011;54708;43.612;1.568;2023-06-01T05:07:58;12.52;;;8.13;;
67902;SDS011;54708;43.612;1.568;2023-06-01T05:10:23;12.13;;;8.30;;
67902;SDS011;54708;43.612;1.568;2023-06-01T05:12:48;13.80;;;7.78;;
67902;SDS011;54708;43.612;1.568;2023-06-01T05:15:14;16.02;;;8.82;;
67902;SDS011;54708;43.612;1.568;2023-06-01T05:17:41;13.48;;;8.32;;
67902;SDS011;54708;43.612;1.568;2023-06-01T05:20:07;12.70;;;8.15;;
67902;SDS011;54708;43.612;1.568;2023-06-01T05:22:34;16.83;;;8.27;;
67902;SDS011;54708;43.612;1.568;2023-06-01T05:25:00;11.73;;;8.35;;
67902;SDS011;54708;43.612;1.568;2023-06-01T05:27:26;14.98;;;8.82;;
67902;SDS011;54708;43.612;1.568;2023-06-01T05:29:51;12.85;;;7.93;;
67902;SDS011;54708;43.612;1.568;2023-06-01T05:32:17;14.05;;;7.82;;
67902;SDS011;54708;43.612;1.568;2023-06-01T05:34:42;17.80;;;9.52;;
67902;SDS011;54708;43.612;1.568;2023-06-01T05:37:08;20.58;;;10.07;;
67902;SDS011;54708;43.612;1.568;2023-06-01T05:39:33;16.30;;;7.93;;
67902;SDS011;54708;43.612;1.568;2023-06-01T05:41:58;16.13;;;8.48;;
67902;SDS011;54708;43.612;1.568;2023-06-01T05:44:24;12.45;;;8.23;;
67902;SDS011;54708;43.612;1.568;2023-06-01T05:46:50;10.30;;;7.78;;
67902;SDS011;54708;43.612;1.568;2023-06-01T05:49:16;14.00;;;9.13;;
67902;SDS011;54708;43.612;1.568;2023-06-01T05:51:41;13.82;;;9.05;;
67902;SDS011;54708;43.612;1.568;2023-06-01T05:54:08;13.18;;;8.15;;
67902;SDS011;54708;43.612;1.568;2023-06-01T05:56:34;15.73;;;8.35;;
67902;SDS011;54708;43.612;1.568;2023-06-01T05:59:02;14.50;;;9.77;;
67902;SDS011;54708;43.612;1.568;2023-06-01T06:01:27;13.23;;;8.10;;
67902;SDS011;54708;43.612;1.568;2023-06-01T06:03:52;15.15;;;8.57;;
67902;SDS011;54708;43.612;1.568;2023-06-01T06:06:18;17.30;;;9.27;;
67902;SDS011;54708;43.612;1.568;2023-06-01T06:08:44;13.68;;;7.95;;
67902;SDS011;54708;43.612;1.568;2023-06-01T06:11:09;9.63;;;8.50;;
67902;SDS011;54708;43.612;1.568;2023-06-01T06:13:35;13.57;;;8.13;;
67902;SDS011;54708;43.612;1.568;2023-06-01T06:16:00;17.02;;;8.65;;
67902;SDS011;54708;43.612;1.568;2023-06-01T06:18:25;15.25;;;8.55;;
67902;SDS011;54708;43.612;1.568;2023-06-01T06:20:51;16.52;;;8.25;;
67902;SDS011;54708;43.612;1.568;2023-06-01T06:23:16;15.07;;;8.48;;
67902;SDS011;54708;43.612;1.568;2023-06-01T06:25:42;14.18;;;7.55;;
67902;SDS011;54708;43.612;1.568;2023-06-01T06:28:08;12.07;;;8.82;;
67902;SDS011;54708;43.612;1.568;2023-06-01T06:30:33;15.88;;;8.23;;
67902;SDS011;54708;43.612;1.568;2023-06-01T06:32:58;22.20;;;8.40;;
67902;SDS011;54708;43.612;1.568;2023-06-01T06:35:24;18.00;;;10.25;;
67902;SDS011;54708;43.612;1.568;2023-06-01T06:37:49;17.45;;;8.20;;
67902;SDS011;54708;43.612;1.568;2023-06-01T06:40:15;15.10;;;9.20;;
67902;SDS011;54708;43.612;1.568;2023-06-01T06:42:42;12.20;;;8.52;;
67902;SDS011;54708;43.612;1.568;2023-06-01T06:45:08;10.93;;;8.57;;
67902;SDS011;54708;43.612;1.568;2023-06-01T06:47:34;12.57;;;8.70;;
67902;SDS011;54708;43.612;1.568;2023-06-01T06:49:59;10.32;;;7.75;;
67902;SDS011;54708;43.612;1.568;2023-06-01T06:52:26;14.05;;;8.98;;
67902;SDS011;54708;43.612;1.568;2023-06-01T06:54:51;14.55;;;7.55;;
67902;SDS011;54708;43.612;1.568;2023-06-01T06:57:16;14.63;;;7.35;;
67902;SDS011;54708;43.612;1.568;2023-06-01T06:59:42;13.20;;;8.18;;
67902;SDS011;54708;43.612;1.568;2023-06-01T07:02:07;11.88;;;8.80;;
67902;SDS011;54708;43.612;1.568;2023-06-01T07:04:32;15.07;;;9.38;;
67902;SDS011;54708;43.612;1.568;2023-06-01T07:06:58;13.20;;;8.05;;
67902;SDS011;54708;43.612;1.568;2023-06-01T07:09:25;10.30;;;7.45;;
67902;SDS011;54708;43.612;1.568;2023-06-01T07:11:51;11.48;;;8.13;;
67902;SDS011;54708;43.612;1.568;2023-06-01T07:14:16;14.75;;;8.07;;
67902;SDS011;54708;43.612;1.568;2023-06-01T07:16:42;9.98;;;7.68;;
67902;SDS011;54708;43.612;1.568;2023-06-01T07:19:08;14.00;;;7.38;;
67902;SDS011;54708;43.612;1.568;2023-06-01T07:21:33;14.48;;;8.25;;
67902;SDS011;54708;43.612;1.568;2023-06-01T07:23:59;11.63;;;7.53;;
67902;SDS011;54708;43.612;1.568;2023-06-01T07:26:24;16.92;;;8.13;;
67902;SDS011;54708;43.612;1.568;2023-06-01T07:28:51;16.05;;;7.53;;
67902;SDS011;54708;43.612;1.568;2023-06-01T07:31:19;17.15;;;8.43;;
67902;SDS011;54708;43.612;1.568;2023-06-01T07:33:44;17.33;;;7.90;;
67902;SDS011;54708;43.612;1.568;2023-06-01T07:36:11;12.88;;;8.13;;
67902;SDS011;54708;43.612;1.568;2023-06-01T07:38:37;9.63;;;6.72;;
67902;SDS011;54708;43.612;1.568;2023-06-01T07:41:02;12.23;;;7.50;;
67902;SDS011;54708;43.612;1.568;2023-06-01T07:43:27;10.25;;;6.97;;
67902;SDS011;54708;43.612;1.568;2023-06-01T07:45:53;10.32;;;8.27;;
67902;SDS011;54708;43.612;1.568;2023-06-01T07:48:19;14.23;;;8.80;;
67902;SDS011;54708;43.612;1.568;2023-06-01T07:50:44;10.90;;;7.38;;
67902;SDS011;54708;43.612;1.568;2023-06-01T07:53:10;13.38;;;6.90;;
67902;SDS011;54708;43.612;1.568;2023-06-01T07:55:36;15.35;;;8.02;;
67902;SDS011;54708;43.612;1.568;2023-06-01T07:58:01;9.27;;;6.80;;
67902;SDS011;54708;43.612;1.568;2023-06-01T08:00:27;11.20;;;7.18;;
67902;SDS011;54708;43.612;1.568;2023-06-01T08:02:52;9.00;;;6.55;;
67902;SDS011;54708;43.612;1.568;2023-06-01T08:05:18;8.25;;;6.68;;
67902;SDS011;54708;43.612;1.568;2023-06-01T08:07:43;10.82;;;6.82;;
67902;SDS011;54708;43.612;1.568;2023-06-01T08:10:11;10.80;;;7.60;;
67902;SDS011;54708;43.612;1.568;2023-06-01T08:12:38;12.82;;;6.45;;
67902;SDS011;54708;43.612;1.568;2023-06-01T08:15:03;8.82;;;6.65;;
67902;SDS011;54708;43.612;1.568;2023-06-01T08:17:29;13.77;;;8.45;;
67902;SDS011;54708;43.612;1.568;2023-06-01T08:19:55;9.80;;;6.00;;
67902;SDS011;54708;43.612;1.568;2023-06-01T08:22:22;10.05;;;6.65;;
67902;SDS011;54708;43.612;1.568;2023-06-01T08:24:48;12.65;;;6.60;;
67902;SDS011;54708;43.612;1.568;2023-06-01T08:27:19;9.18;;;6.10;;
67902;SDS011;54708;43.612;1.568;2023-06-01T08:29:47;9.75;;;6.43;;
67902;SDS011;54708;43.612;1.568;2023-06-01T08:32:13;13.57;;;6.47;;
67902;SDS011;54708;43.612;1.568;2023-06-01T08:34:39;9.98;;;6.97;;
67902;SDS011;54708;43.612;1.568;2023-06-01T08:37:05;11.98;;;7.43;;
67902;SDS011;54708;43.612;1.568;2023-06-01T08:39:30;10.98;;;7.53;;
67902;SDS011;54708;43.612;1.568;2023-06-01T08:45:00;8.50;;;6.43;;
67902;SDS011;54708;43.612;1.568;2023-06-01T08:47:29;17.40;;;7.22;;
67902;SDS011;54708;43.612;1.568;2023-06-01T08:49:56;9.73;;;7.35;;
67902;SDS011;54708;43.612;1.568;2023-06-01T08:52:24;17.13;;;7.57;;
67902;SDS011;54708;43.612;1.568;2023-06-01T08:54:53;12.05;;;6.55;;
67902;SDS011;54708;43.612;1.568;2023-06-01T08:57:19;13.50;;;6.88;;
67902;SDS011;54708;43.612;1.568;2023-06-01T08:59:45;8.55;;;6.20;;
67902;SDS011;54708;43.612;1.568;2023-06-01T09:02:11;10.02;;;6.57;;
67902;SDS011;54708;43.612;1.568;2023-06-01T09:04:36;9.30;;;6.72;;
67902;SDS011;54708;43.612;1.568;2023-06-01T09:07:06;10.38;;;7.68;;
67902;SDS011;54708;43.612;1.568;2023-06-01T09:09:32;12.88;;;6.32;;
67902;SDS011;54708;43.612;1.568;2023-06-01T09:14:45;11.10;;;7.18;;
67902;SDS011;54708;43.612;1.568;2023-06-01T09:17:15;7.35;;;6.07;;
67902;SDS011;54708;43.612;1.568;2023-06-01T09:19:47;9.40;;;6.97;;
67902;SDS011;54708;43.612;1.568;2023-06-01T09:22:12;9.40;;;7.00;;
67902;SDS011;54708;43.612;1.568;2023-06-01T09:24:38;9.80;;;6.97;;
67902;SDS011;54708;43.612;1.568;2023-06-01T09:27:06;11.82;;;7.25;;
67902;SDS011;54708;43.612;1.568;2023-06-01T09:29:31;9.70;;;7.50;;
67902;SDS011;54708;43.612;1.568;2023-06-01T09:31:57;7.63;;;6.30;;
67902;SDS011;54708;43.612;1.568;2023-06-01T09:34:24;11.73;;;6.88;;
67902;SDS011;54708;43.612;1.568;2023-06-01T09:36:51;12.70;;;7.20;;
67902;SDS011;54708;43.612;1.568;2023-06-01T09:39:18;9.98;;;6.80;;
67902;SDS011;54708;43.612;1.568;2023-06-01T09:41:46;10.82;;;6.50;;
67902;SDS011;54708;43.612;1.568;2023-06-01T09:44:12;11.50;;;7.15;;
67902;SDS011;54708;43.612;1.568;2023-06-01T09:46:52;12.85;;;8.10;;
67902;SDS011;54708;43.612;1.568;2023-06-01T09:49:28;13.25;;;7.18;;
67902;SDS011;54708;43.612;1.568;2023-06-01T09:54:30;11.95;;;7.32;;
67902;SDS011;54708;43.612;1.568;2023-06-01T09:56:57;9.20;;;6.88;;
67902;SDS011;54708;43.612;1.568;2023-06-01T09:59:24;10.05;;;6.28;;
67902;SDS011;54708;43.612;1.568;2023-06-01T10:01:52;11.93;;;7.63;;
67902;SDS011;54708;43.612;1.568;2023-06-01T10:04:22;8.80;;;6.72;;
67902;SDS011;54708;43.612;1.568;2023-06-01T10:06:49;8.68;;;6.57;;
67902;SDS011;54708;43.612;1.568;2023-06-01T10:09:19;10.60;;;6.85;;
67902;SDS011;54708;43.612;1.568;2023-06-01T10:11:46;7.95;;;6.13;;
67902;SDS011;54708;43.612;1.568;2023-06-01T10:14:13;11.30;;;6.90;;
67902;SDS011;54708;43.612;1.568;2023-06-01T10:16:39;8.43;;;7.03;;
67902;SDS011;54708;43.612;1.568;2023-06-01T10:19:07;9.55;;;5.43;;
67902;SDS011;54708;43.612;1.568;2023-06-01T10:21:33;6.30;;;5.53;;
67902;SDS011;54708;43.612;1.568;2023-06-01T10:23:58;11.00;;;6.15;;
67902;SDS011;54708;43.612;1.568;2023-06-01T10:26:24;9.00;;;5.95;;
67902;SDS011;54708;43.612;1.568;2023-06-01T10:28:51;7.55;;;6.47;;
67902;SDS011;54708;43.612;1.568;2023-06-01T10:31:36;9.20;;;5.80;;
67902;SDS011;54708;43.612;1.568;2023-06-01T10:34:03;6.47;;;5.38;;
67902;SDS011;54708;43.612;1.568;2023-06-01T10:41:50;10.35;;;6.43;;
67902;SDS011;54708;43.612;1.568;2023-06-01T10:47:07;6.68;;;4.85;;
67902;SDS011;54708;43.612;1.568;2023-06-01T10:57:47;6.30;;;5.55;;
67902;SDS011;54708;43.612;1.568;2023-06-01T11:00:25;6.97;;;5.57;;
67902;SDS011;54708;43.612;1.568;2023-06-01T11:02:58;7.80;;;5.78;;
67902;SDS011;54708;43.612;1.568;2023-06-01T11:08:03;8.23;;;5.68;;
67902;SDS011;54708;43.612;1.568;2023-06-01T11:13:15;11.07;;;6.13;;
67902;SDS011;54708;43.612;1.568;2023-06-01T11:23:41;7.80;;;5.93;;
67902;SDS011;54708;43.612;1.568;2023-06-01T11:26:07;6.18;;;5.55;;
67902;SDS011;54708;43.612;1.568;2023-06-01T11:28:33;7.55;;;6.10;;
67902;SDS011;54708;43.612;1.568;2023-06-01T11:31:00;7.80;;;5.32;;
67902;SDS011;54708;43.612;1.568;2023-06-01T11:33:27;5.63;;;5.00;;
67902;SDS011;54708;43.612;1.568;2023-06-01T11:35:59;8.98;;;6.57;;
67902;SDS011;54708;43.612;1.568;2023-06-01T11:38:37;6.90;;;5.90;;
67902;SDS011;54708;43.612;1.568;2023-06-01T11:41:06;6.43;;;5.28;;
67902;SDS011;54708;43.612;1.568;2023-06-01T11:43:32;8.18;;;5.97;;
67902;SDS011;54708;43.612;1.568;2023-06-01T11:46:01;7.30;;;6.00;;
67902;SDS011;54708;43.612;1.568;2023-06-01T11:48:28;6.35;;;5.75;;
67902;SDS011;54708;43.612;1.568;2023-06-01T11:50:53;8.38;;;5.22;;
67902;SDS011;54708;43.612;1.568;2023-06-01T11:53:24;8.18;;;6.07;;
67902;SDS011;54708;43.612;1.568;2023-06-01T11:55:53;8.77;;;5.80;;
67902;SDS011;54708;43.612;1.568;2023-06-01T11:58:26;8.23;;;5.88;;
67902;SDS011;54708;43.612;1.568;2023-06-01T12:00:53;8.80;;;5.63;;
67902;SDS011;54708;43.612;1.568;2023-06-01T12:03:19;8.43;;;5.45;;
67902;SDS011;54708;43.612;1.568;2023-06-01T12:05:45;8.57;;;5.78;;
67902;SDS011;54708;43.612;1.568;2023-06-01T12:08:15;7.18;;;5.72;;
67902;SDS011;54708;43.612;1.568;2023-06-01T12:10:43;7.35;;;5.25;;
67902;SDS011;54708;43.612;1.568;2023-06-01T12:13:09;10.82;;;6.28;;
67902;SDS011;54708;43.612;1.568;2023-06-01T12:15:36;6.47;;;5.53;;
67902;SDS011;54708;43.612;1.568;2023-06-01T12:18:02;6.38;;;5.78;;
67902;SDS011;54708;43.612;1.568;2023-06-01T12:20:35;7.00;;;5.68;;
67902;SDS011;54708;43.612;1.568;2023-06-01T12:25:52;6.40;;;5.40;;
67902;SDS011;54708;43.612;1.568;2023-06-01T12:28:22;7.47;;;6.15;;
67902;SDS011;54708;43.612;1.568;2023-06-01T12:30:48;6.45;;;5.55;;
67902;SDS011;54708;43.612;1.568;2023-06-01T12:33:30;6.93;;;5.43;;
67902;SDS011;54708;43.612;1.568;2023-06-01T12:35:57;7.80;;;5.43;;
67902;SDS011;54708;43.612;1.568;2023-06-01T12:38:23;6.93;;;5.70;;
67902;SDS011;54708;43.612;1.568;2023-06-01T12:41:04;7.65;;;5.75;;
67902;SDS011;54708;43.612;1.568;2023-06-01T12:43:34;6.53;;;5.32;;
67902;SDS011;54708;43.612;1.568;2023-06-01T12:45:59;7.00;;;6.00;;
67902;SDS011;54708;43.612;1.568;2023-06-01T12:48:29;5.60;;;4.80;;
67902;SDS011;54708;43.612;1.568;2023-06-01T12:53:23;10.48;;;6.50;;
67902;SDS011;54708;43.612;1.568;2023-06-01T12:55:49;10.70;;;6.05;;
67902;SDS011;54708;43.612;1.568;2023-06-01T12:58:14;7.15;;;5.80;;
67902;SDS011;54708;43.612;1.568;2023-06-01T13:00:40;9.45;;;6.15;;
67902;SDS011;54708;43.612;1.568;2023-06-01T13:03:05;10.40;;;5.38;;
67902;SDS011;54708;43.612;1.568;2023-06-01T13:05:32;6.82;;;5.35;;
67902;SDS011;54708;43.612;1.568;2023-06-01T13:07:58;7.15;;;4.72;;
67902;SDS011;54708;43.612;1.568;2023-06-01T13:10:24;6.60;;;4.90;;
67902;SDS011;54708;43.612;1.568;2023-06-01T13:12:50;6.97;;;5.85;;
67902;SDS011;54708;43.612;1.568;2023-06-01T13:15:15;5.70;;;4.70;;
67902;SDS011;54708;43.612;1.568;2023-06-01T13:17:40;6.28;;;5.53;;
67902;SDS011;54708;43.612;1.568;2023-06-01T13:20:06;5.68;;;5.18;;
67902;SDS011;54708;43.612;1.568;2023-06-01T13:22:32;8.25;;;5.53;;
67902;SDS011;54708;43.612;1.568;2023-06-01T13:24:57;8.55;;;5.53;;
67902;SDS011;54708;43.612;1.568;2023-06-01T13:27:23;8.43;;;5.82;;
67902;SDS011;54708;43.612;1.568;2023-06-01T13:29:48;6.78;;;5.30;;
67902;SDS011;54708;43.612;1.568;2023-06-01T13:32:14;5.38;;;4.60;;
67902;SDS011;54708;43.612;1.568;2023-06-01T13:34:39;7.15;;;4.72;;
67902;SDS011;54708;43.612;1.568;2023-06-01T13:37:06;6.97;;;5.25;;
67902;SDS011;54708;43.612;1.568;2023-06-01T13:39:31;6.38;;;4.85;;
67902;SDS011;54708;43.612;1.568;2023-06-01T13:41:57;6.72;;;4.72;;
67902;SDS011;54708;43.612;1.568;2023-06-01T13:44:23;5.90;;;5.00;;
67902;SDS011;54708;43.612;1.568;2023-06-01T13:46:48;7.78;;;5.03;;
67902;SDS011;54708;43.612;1.568;2023-06-01T13:49:14;6.57;;;4.72;;
67902;SDS011;54708;43.612;1.568;2023-06-01T13:51:40;7.35;;;5.30;;
67902;SDS011;54708;43.612;1.568;2023-06-01T13:54:05;5.55;;;4.97;;
67902;SDS011;54708;43.612;1.568;2023-06-01T13:56:31;7.03;;;5.18;;
67902;SDS011;54708;43.612;1.568;2023-06-01T13:58:57;5.90;;;5.10;;
67902;SDS011;54708;43.612;1.568;2023-06-01T14:01:22;5.82;;;4.88;;
67902;SDS011;54708;43.612;1.568;2023-06-01T14:03:48;9.32;;;5.63;;
67902;SDS011;54708;43.612;1.568;2023-06-01T14:06:13;6.88;;;5.03;;
67902;SDS011;54708;43.612;1.568;2023-06-01T14:08:39;6.70;;;4.88;;
67902;SDS011;54708;43.612;1.568;2023-06-01T14:11:04;8.57;;;5.45;;
67902;SDS011;54708;43.612;1.568;2023-06-01T14:13:30;8.50;;;5.03;;
67902;SDS011;54708;43.612;1.568;2023-06-01T14:15:55;8.50;;;4.43;;
67902;SDS011;54708;43.612;1.568;2023-06-01T14:18:21;7.97;;;4.88;;
67902;SDS011;54708;43.612;1.568;2023-06-01T14:20:46;5.20;;;4.68;;
67902;SDS011;54708;43.612;1.568;2023-06-01T14:23:12;7.88;;;5.22;;
67902;SDS011;54708;43.612;1.568;2023-06-01T14:25:37;6.63;;;5.32;;
67902;SDS011;54708;43.612;1.568;2023-06-01T14:28:02;8.43;;;4.60;;
67902;SDS011;54708;43.612;1.568;2023-06-01T14:30:28;6.50;;;4.65;;
67902;SDS011;54708;43.612;1.568;2023-06-01T14:32:53;5.60;;;4.95;;
67902;SDS011;54708;43.612;1.568;2023-06-01T14:35:19;6.65;;;5.10;;
67902;SDS011;54708;43.612;1.568;2023-06-01T14:37:45;7.68;;;4.85;;
67902;SDS011;54708;43.612;1.568;2023-06-01T14:40:11;6.22;;;4.60;;
67902;SDS011;54708;43.612;1.568;2023-06-01T14:42:37;5.95;;;4.75;;
67902;SDS011;54708;43.612;1.568;2023-06-01T14:45:03;7.10;;;5.55;;
67902;SDS011;54708;43.612;1.568;2023-06-01T14:47:29;5.72;;;4.97;;
67902;SDS011;54708;43.612;1.568;2023-06-01T14:49:55;5.22;;;3.95;;
67902;SDS011;54708;43.612;1.568;2023-06-01T14:52:21;5.35;;;4.55;;
67902;SDS011;54708;43.612;1.568;2023-06-01T14:54:46;6.15;;;5.03;;
67902;SDS011;54708;43.612;1.568;2023-06-01T14:57:13;7.05;;;4.63;;
67902;SDS011;54708;43.612;1.568;2023-06-01T14:59:39;5.30;;;4.72;;
67902;SDS011;54708;43.612;1.568;2023-06-01T15:02:05;5.75;;;5.10;;
67902;SDS011;54708;43.612;1.568;2023-06-01T15:04:32;6.30;;;4.60;;
67902;SDS011;54708;43.612;1.568;2023-06-01T15:06:58;6.13;;;4.93;;
67902;SDS011;54708;43.612;1.568;2023-06-01T15:09:23;6.47;;;5.28;;
67902;SDS011;54708;43.612;1.568;2023-06-01T15:11:49;4.68;;;4.07;;
67902;SDS011;54708;43.612;1.568;2023-06-01T15:14:15;5.50;;;4.63;;
67902;SDS011;54708;43.612;1.568;2023-06-01T15:16:40;7.25;;;4.47;;
67902;SDS011;54708;43.612;1.568;2023-06-01T15:19:06;5.75;;;4.53;;
67902;SDS011;54708;43.612;1.568;2023-06-01T15:21:31;5.22;;;4.55;;
67902;SDS011;54708;43.612;1.568;2023-06-01T15:23:56;4.95;;;4.40;;
67902;SDS011;54708;43.612;1.568;2023-06-01T15:26:22;6.95;;;4.63;;
67902;SDS011;54708;43.612;1.568;2023-06-01T15:28:47;6.90;;;4.45;;
67902;SDS011;54708;43.612;1.568;2023-06-01T15:31:13;9.02;;;4.15;;
67902;SDS011;54708;43.612;1.568;2023-06-01T15:33:38;6.95;;;4.38;;
67902;SDS011;54708;43.612;1.568;2023-06-01T15:36:03;6.97;;;3.97;;
67902;SDS011;54708;43.612;1.568;2023-06-01T15:38:29;5.30;;;4.53;;